Terminal Aerodrome Forecast
Issued by NWS Melbourne, FL

Home | Current Version | Previous Version | Text Only | Print | Product List | Glossary On
Versions: 1 2 3 4 5 6 7 8 9 10 11 12 13 14 15 16 17 18 19 20 21 22
894
FTUS42 KMLB 291120
TAFDAB
TAF
KDAB 291120Z 2912/3012 06006KT P6SM FEW015 SCT025 BKN200
     FM291600 07008KT P6SM VCSH SCT025 SCT200
     FM292000 07007KT P6SM SCT035 SCT200
     FM300200 07003KT P6SM SCT030 SCT100 BKN200=

USA.gov is the U.S. government's official web portal to all federal, state and local government web resources and services.